sensor_id;sensor_type;location;lat;lon;timestamp;pressure;altitude;pressure_sealevel;temperature;humidity
51259;BME280;37327;54.254;18.504;2023-02-11T00:02:30;101611.63;;;1.63;100.00
51259;BME280;37327;54.254;18.504;2023-02-11T00:05:38;101612.38;;;1.65;100.00
51259;BME280;37327;54.254;18.504;2023-02-11T00:08:45;101605.15;;;1.67;100.00
51259;BME280;37327;54.254;18.504;2023-02-11T00:11:52;101590.88;;;1.68;100.00
51259;BME280;37327;54.254;18.504;2023-02-11T00:14:58;101574.05;;;1.67;100.00
51259;BME280;37327;54.254;18.504;2023-02-11T00:18:05;101583.86;;;1.67;100.00
51259;BME280;37327;54.254;18.504;2023-02-11T00:21:18;101573.95;;;1.69;100.00
51259;BME280;37327;54.254;18.504;2023-02-11T00:24:26;101559.89;;;1.67;100.00
51259;BME280;37327;54.254;18.504;2023-02-11T00:27:36;101548.18;;;1.69;100.00
51259;BME280;37327;54.254;18.504;2023-02-11T00:30:43;101543.71;;;1.70;100.00
51259;BME280;37327;54.254;18.504;2023-02-11T00:33:50;101525.07;;;1.70;100.00
51259;BME280;37327;54.254;18.504;2023-02-11T00:36:57;101506.43;;;1.70;100.00
51259;BME280;37327;54.254;18.504;2023-02-11T00:57:38;101431.62;;;1.47;100.00
51259;BME280;37327;54.254;18.504;2023-02-11T01:00:45;101408.41;;;1.49;100.00
51259;BME280;37327;54.254;18.504;2023-02-11T01:03:52;101413.43;;;1.54;100.00
51259;BME280;37327;54.254;18.504;2023-02-11T01:07:00;101417.50;;;1.60;100.00
51259;BME280;37327;54.254;18.504;2023-02-11T01:10:07;101388.02;;;1.63;100.00
51259;BME280;37327;54.254;18.504;2023-02-11T01:13:44;101365.76;;;1.64;100.00
51259;BME280;37327;54.254;18.504;2023-02-11T01:16:52;101364.72;;;1.66;100.00
51259;BME280;37327;54.254;18.504;2023-02-11T01:20:00;101364.59;;;1.68;100.00
51259;BME280;37327;54.254;18.504;2023-02-11T01:23:08;101370.66;;;1.70;100.00
51259;BME280;37327;54.254;18.504;2023-02-11T01:26:15;101374.85;;;1.74;100.00
51259;BME280;37327;54.254;18.504;2023-02-11T01:29:22;101375.60;;;1.76;100.00
51259;BME280;37327;54.254;18.504;2023-02-11T01:32:55;101376.45;;;1.76;100.00
51259;BME280;37327;54.254;18.504;2023-02-11T01:36:04;101365.70;;;1.78;100.00
51259;BME280;37327;54.254;18.504;2023-02-11T01:39:12;101377.29;;;1.77;100.00
51259;BME280;37327;54.254;18.504;2023-02-11T02:06:15;101305.38;;;1.51;100.00
51259;BME280;37327;54.254;18.504;2023-02-11T02:09:29;101293.66;;;1.54;100.00
51259;BME280;37327;54.254;18.504;2023-02-11T02:12:40;101273.99;;;1.56;100.00
51259;BME280;37327;54.254;18.504;2023-02-11T02:15:52;101272.08;;;1.58;100.00
51259;BME280;37327;54.254;18.504;2023-02-11T02:25:46;101266.52;;;1.62;100.00
51259;BME280;37327;54.254;18.504;2023-02-11T02:29:10;101259.41;;;1.62;100.00
51259;BME280;37327;54.254;18.504;2023-02-11T02:32:25;101259.28;;;1.64;100.00
51259;BME280;37327;54.254;18.504;2023-02-11T02:36:27;101261.01;;;1.65;100.00
51259;BME280;37327;54.254;18.504;2023-02-11T02:42:13;101244.93;;;1.66;100.00
51259;BME280;37327;54.254;18.504;2023-02-11T02:45:22;101238.53;;;1.69;100.00
51259;BME280;37327;54.254;18.504;2023-02-11T02:48:32;101228.82;;;1.68;100.00
51259;BME280;37327;54.254;18.504;2023-02-11T02:58:30;101199.45;;;1.69;100.00
51259;BME280;37327;54.254;18.504;2023-02-11T03:01:49;101189.77;;;1.68;100.00
51259;BME280;37327;54.254;18.504;2023-02-11T03:05:05;101186.23;;;1.68;100.00
51259;BME280;37327;54.254;18.504;2023-02-11T03:11:36;101169.32;;;1.69;100.00
51259;BME280;37327;54.254;18.504;2023-02-11T03:14:44;101163.02;;;1.70;100.00
51259;BME280;37327;54.254;18.504;2023-02-11T03:17:53;101164.84;;;1.69;100.00
51259;BME280;37327;54.254;18.504;2023-02-11T03:21:04;101165.69;;;1.70;100.00
51259;BME280;37327;54.254;18.504;2023-02-11T03:24:27;101147.18;;;1.68;100.00
51259;BME280;37327;54.254;18.504;2023-02-11T03:27:41;101144.38;;;1.70;100.00
51259;BME280;37327;54.254;18.504;2023-02-11T03:31:01;101134.72;;;1.69;100.00
51259;BME280;37327;54.254;18.504;2023-02-11T03:34:15;101136.40;;;1.70;100.00
51259;BME280;37327;54.254;18.504;2023-02-11T03:37:32;101139.06;;;1.70;100.00
51259;BME280;37327;54.254;18.504;2023-02-11T03:40:42;101138.12;;;1.71;100.00
51259;BME280;37327;54.254;18.504;2023-02-11T03:43:54;101129.19;;;1.72;100.00
51259;BME280;37327;54.254;18.504;2023-02-11T03:47:04;101116.82;;;1.71;100.00
51259;BME280;37327;54.254;18.504;2023-02-11T03:50:14;101110.66;;;1.70;100.00
51259;BME280;37327;54.254;18.504;2023-02-11T03:53:22;101118.74;;;1.69;100.00
51259;BME280;37327;54.254;18.504;2023-02-11T03:56:34;101118.01;;;1.67;100.00
51259;BME280;37327;54.254;18.504;2023-02-11T03:59:49;101118.95;;;1.66;100.00
51259;BME280;37327;54.254;18.504;2023-02-11T04:02:56;101112.78;;;1.65;100.00
51259;BME280;37327;54.254;18.504;2023-02-11T04:06:03;101114.49;;;1.66;100.00
51259;BME280;37327;54.254;18.504;2023-02-11T04:09:10;101115.34;;;1.67;100.00
51259;BME280;37327;54.254;18.504;2023-02-11T04:12:18;101112.58;;;1.68;100.00
51259;BME280;37327;54.254;18.504;2023-02-11T04:15:25;101107.13;;;1.70;100.00
51259;BME280;37327;54.254;18.504;2023-02-11T04:18:31;101110.55;;;1.72;100.00
51259;BME280;37327;54.254;18.504;2023-02-11T04:21:38;101099.77;;;1.73;100.00
51259;BME280;37327;54.254;18.504;2023-02-11T04:24:45;101087.33;;;1.74;100.00
51259;BME280;37327;54.254;18.504;2023-02-11T04:27:53;101068.70;;;1.74;100.00
51259;BME280;37327;54.254;18.504;2023-02-11T04:31:00;101065.90;;;1.75;100.00
51259;BME280;37327;54.254;18.504;2023-02-11T04:34:07;101060.57;;;1.75;100.00
51259;BME280;37327;54.254;18.504;2023-02-11T04:37:14;101056.13;;;1.76;100.00
51259;BME280;37327;54.254;18.504;2023-02-11T04:40:21;101070.38;;;1.75;100.00
51259;BME280;37327;54.254;18.504;2023-02-11T04:43:28;101059.52;;;1.78;100.00
51259;BME280;37327;54.254;18.504;2023-02-11T04:46:35;101055.04;;;1.78;100.00
51259;BME280;37327;54.254;18.504;2023-02-11T04:49:42;101047.90;;;1.79;100.00
51259;BME280;37327;54.254;18.504;2023-02-11T04:52:49;101031.08;;;1.78;100.00
51259;BME280;37327;54.254;18.504;2023-02-11T04:55:56;101044.16;;;1.82;100.00
51259;BME280;37327;54.254;18.504;2023-02-11T04:59:05;101014.76;;;1.83;100.00
51259;BME280;37327;54.254;18.504;2023-02-11T05:02:12;101015.49;;;1.85;100.00
51259;BME280;37327;54.254;18.504;2023-02-11T05:05:19;101005.58;;;1.87;100.00
51259;BME280;37327;54.254;18.504;2023-02-11T05:08:26;100985.98;;;1.88;100.00
51259;BME280;37327;54.254;18.504;2023-02-11T05:11:33;100992.16;;;1.89;100.00
51259;BME280;37327;54.254;18.504;2023-02-11T05:14:41;100975.09;;;1.91;100.00
51259;BME280;37327;54.254;18.504;2023-02-11T05:17:48;100988.30;;;1.93;100.00
51259;BME280;37327;54.254;18.504;2023-02-11T05:20:55;100986.51;;;1.93;100.00
51259;BME280;37327;54.254;18.504;2023-02-11T05:24:02;100976.59;;;1.95;100.00
51259;BME280;37327;54.254;18.504;2023-02-11T05:27:09;100979.98;;;1.97;100.00
51259;BME280;37327;54.254;18.504;2023-02-11T05:30:16;100967.63;;;1.96;100.00
51259;BME280;37327;54.254;18.504;2023-02-11T05:33:23;100968.45;;;1.97;100.00
51259;BME280;37327;54.254;18.504;2023-02-11T05:36:30;100974.66;;;1.97;100.00
51259;BME280;37327;54.254;18.504;2023-02-11T05:39:37;100956.85;;;1.98;100.00
51259;BME280;37327;54.254;18.504;2023-02-11T05:42:44;100956.85;;;1.98;100.00
51259;BME280;37327;54.254;18.504;2023-02-11T05:45:51;100953.11;;;2.01;100.00
51259;BME280;37327;54.254;18.504;2023-02-11T05:48:58;100944.17;;;2.02;100.00
51259;BME280;37327;54.254;18.504;2023-02-11T05:52:04;100935.20;;;2.03;100.00
51259;BME280;37327;54.254;18.504;2023-02-11T05:55:11;100930.60;;;2.05;100.00
51259;BME280;37327;54.254;18.504;2023-02-11T05:58:18;100926.02;;;2.07;100.00
51259;BME280;37327;54.254;18.504;2023-02-11T06:01:25;100913.56;;;2.07;100.00
51259;BME280;37327;54.254;18.504;2023-02-11T06:04:33;100902.77;;;2.09;100.00
51259;BME280;37327;54.254;18.504;2023-02-11T06:07:40;100912.37;;;2.11;100.00
51259;BME280;37327;54.254;18.504;2023-02-11T06:10:47;100902.32;;;2.15;100.00
51259;BME280;37327;54.254;18.504;2023-02-11T06:13:54;100895.05;;;2.17;100.00
51259;BME280;37327;54.254;18.504;2023-02-11T06:17:01;100883.42;;;2.18;100.00
51259;BME280;37327;54.254;18.504;2023-02-11T06:20:09;100884.15;;;2.20;100.00
51259;BME280;37327;54.254;18.504;2023-02-11T06:23:17;100861.77;;;2.23;100.00
51259;BME280;37327;54.254;18.504;2023-02-11T06:26:24;100866.00;;;2.25;100.00
51259;BME280;37327;54.254;18.504;2023-02-11T06:29:31;100861.41;;;2.27;100.00
51259;BME280;37327;54.254;18.504;2023-02-11T06:32:38;100856.70;;;2.31;100.00
51259;BME280;37327;54.254;18.504;2023-02-11T06:35:44;100851.24;;;2.32;100.00
51259;BME280;37327;54.254;18.504;2023-02-11T06:38:52;100856.43;;;2.34;100.00
51259;BME280;37327;54.254;18.504;2023-02-11T06:41:59;100869.52;;;2.37;100.00
51259;BME280;37327;54.254;18.504;2023-02-11T06:45:07;100850.77;;;2.39;100.00
51259;BME280;37327;54.254;18.504;2023-02-11T06:48:18;100840.84;;;2.41;100.00
51259;BME280;37327;54.254;18.504;2023-02-11T06:51:24;100855.83;;;2.42;100.00
51259;BME280;37327;54.254;18.504;2023-02-11T06:54:31;100858.27;;;2.45;100.00
51259;BME280;37327;54.254;18.504;2023-02-11T06:57:38;100863.49;;;2.46;100.00
51259;BME280;37327;54.254;18.504;2023-02-11T07:00:45;100879.34;;;2.48;100.00
51259;BME280;37327;54.254;18.504;2023-02-11T07:03:53;100886.11;;;2.52;100.00
51259;BME280;37327;54.254;18.504;2023-02-11T07:07:00;100890.26;;;2.56;100.00
51259;BME280;37327;54.254;18.504;2023-02-11T07:10:08;100879.35;;;2.59;100.00
51259;BME280;37327;54.254;18.504;2023-02-11T07:13:15;100889.77;;;2.62;100.00
51259;BME280;37327;54.254;18.504;2023-02-11T07:16:22;100889.52;;;2.65;100.00
51259;BME280;37327;54.254;18.504;2023-02-11T07:19:29;100890.97;;;2.69;100.00
51259;BME280;37327;54.254;18.504;2023-02-11T07:22:36;100895.23;;;2.72;100.00
51259;BME280;37327;54.254;18.504;2023-02-11T07:25:43;100888.07;;;2.72;100.00
51259;BME280;37327;54.254;18.504;2023-02-11T07:28:50;100882.51;;;2.75;100.00
51259;BME280;37327;54.254;18.504;2023-02-11T07:31:58;100866.37;;;2.77;100.00
51259;BME280;37327;54.254;18.504;2023-02-11T07:35:05;100868.91;;;2.79;100.00
51259;BME280;37327;54.254;18.504;2023-02-11T07:38:12;100855.58;;;2.79;100.00
51259;BME280;37327;54.254;18.504;2023-02-11T07:41:20;100853.52;;;2.82;100.00
51259;BME280;37327;54.254;18.504;2023-02-11T07:44:28;100853.29;;;2.85;100.00
51259;BME280;37327;54.254;18.504;2023-02-11T07:47:34;100855.58;;;2.90;100.00
51259;BME280;37327;54.254;18.504;2023-02-11T07:50:43;100849.98;;;2.93;100.00
51259;BME280;37327;54.254;18.504;2023-02-11T07:53:50;100839.91;;;2.96;100.00
51259;BME280;37327;54.254;18.504;2023-02-11T07:56:57;100845.85;;;3.00;100.00
51259;BME280;37327;54.254;18.504;2023-02-11T08:00:05;100853.61;;;3.03;100.00
51259;BME280;37327;54.254;18.504;2023-02-11T08:03:12;100841.72;;;3.07;100.00
51259;BME280;37327;54.254;18.504;2023-02-11T08:06:21;100836.12;;;3.10;100.00
51259;BME280;37327;54.254;18.504;2023-02-11T08:09:29;100848.98;;;3.16;100.00
51259;BME280;37327;54.254;18.504;2023-02-11T08:12:36;100829.92;;;3.21;100.00
51259;BME280;37327;54.254;18.504;2023-02-11T08:15:43;100845.53;;;3.26;100.00
51259;BME280;37327;54.254;18.504;2023-02-11T08:18:52;100818.49;;;3.30;100.00
51259;BME280;37327;54.254;18.504;2023-02-11T08:22:01;100813.48;;;3.37;100.00
51259;BME280;37327;54.254;18.504;2023-02-11T08:25:07;100831.77;;;3.42;100.00
51259;BME280;37327;54.254;18.504;2023-02-11T08:28:14;100836.74;;;3.46;100.00
51259;BME280;37327;54.254;18.504;2023-02-11T08:31:24;100843.05;;;3.45;100.00
51259;BME280;37327;54.254;18.504;2023-02-11T08:34:32;100815.27;;;3.48;100.00
51259;BME280;37327;54.254;18.504;2023-02-11T08:37:39;100783.08;;;3.49;100.00
51259;BME280;37327;54.254;18.504;2023-02-11T08:40:46;100779.17;;;3.53;100.00
51259;BME280;37327;54.254;18.504;2023-02-11T08:43:54;100789.61;;;3.56;100.00
51259;BME280;37327;54.254;18.504;2023-02-11T08:47:02;100778.69;;;3.60;100.00
51259;BME280;37327;54.254;18.504;2023-02-11T08:50:09;100767.73;;;3.63;100.00
51259;BME280;37327;54.254;18.504;2023-02-11T08:53:16;100766.64;;;3.65;100.00
51259;BME280;37327;54.254;18.504;2023-02-11T08:56:23;100765.77;;;3.65;100.00
51259;BME280;37327;54.254;18.504;2023-02-11T08:59:30;100769.03;;;3.68;100.00
51259;BME280;37327;54.254;18.504;2023-02-11T09:02:37;100774.13;;;3.71;100.00
51259;BME280;37327;54.254;18.504;2023-02-11T09:05:46;100768.38;;;3.76;100.00
51259;BME280;37327;54.254;18.504;2023-02-11T09:08:57;100807.31;;;3.79;100.00
51259;BME280;37327;54.254;18.504;2023-02-11T09:12:05;100792.88;;;3.81;100.00
51259;BME280;37327;54.254;18.504;2023-02-11T09:15:12;100811.16;;;3.86;100.00
51259;BME280;37327;54.254;18.504;2023-02-11T09:18:19;100800.79;;;3.92;100.00
51259;BME280;37327;54.254;18.504;2023-02-11T09:21:26;100813.71;;;4.08;100.00
51259;BME280;37327;54.254;18.504;2023-02-11T09:24:33;100824.70;;;4.15;100.00
51259;BME280;37327;54.254;18.504;2023-02-11T09:27:40;100810.67;;;4.23;100.00
51259;BME280;37327;54.254;18.504;2023-02-11T09:30:47;100793.98;;;4.30;100.00
51259;BME280;37327;54.254;18.504;2023-02-11T09:33:57;100792.05;;;4.42;100.00
51259;BME280;37327;54.254;18.504;2023-02-11T09:37:05;100795.63;;;4.62;100.00
51259;BME280;37327;54.254;18.504;2023-02-11T09:40:14;100803.13;;;4.78;100.00
51259;BME280;37327;54.254;18.504;2023-02-11T09:46:48;100806.98;;;4.95;100.00
51259;BME280;37327;54.254;18.504;2023-02-11T09:50:03;100812.07;;;4.98;100.00
51259;BME280;37327;54.254;18.504;2023-02-11T09:53:19;100809.39;;;4.98;100.00
51259;BME280;37327;54.254;18.504;2023-02-11T09:56:27;100839.80;;;4.97;100.00
51259;BME280;37327;54.254;18.504;2023-02-11T09:59:34;100838.96;;;4.97;100.00
51259;BME280;37327;54.254;18.504;2023-02-11T10:02:54;100854.00;;;4.98;100.00
51259;BME280;37327;54.254;18.504;2023-02-11T10:06:14;100854.18;;;4.96;100.00
51259;BME280;37327;54.254;18.504;2023-02-11T10:16:14;100849.38;;;5.09;100.00
51259;BME280;37327;54.254;18.504;2023-02-11T10:19:29;100834.48;;;5.17;100.00
51259;BME280;37327;54.254;18.504;2023-02-11T10:22:40;100831.95;;;5.25;100.00
51259;BME280;37327;54.254;18.504;2023-02-11T10:25:51;100852.80;;;5.31;100.00
51259;BME280;37327;54.254;18.504;2023-02-11T10:29:12;100848.59;;;5.38;100.00
51259;BME280;37327;54.254;18.504;2023-02-11T10:32:32;100852.27;;;5.37;100.00
51259;BME280;37327;54.254;18.504;2023-02-11T10:35:38;100878.87;;;5.29;100.00
51259;BME280;37327;54.254;18.504;2023-02-11T10:38:47;100881.52;;;5.19;100.00
51259;BME280;37327;54.254;18.504;2023-02-11T10:42:00;100882.91;;;5.13;100.00
51259;BME280;37327;54.254;18.504;2023-02-11T10:45:18;100892.50;;;5.06;100.00
51259;BME280;37327;54.254;18.504;2023-02-11T10:51:46;100904.02;;;4.97;100.00
51259;BME280;37327;54.254;18.504;2023-02-11T10:58:22;100920.33;;;4.94;100.00
51259;BME280;37327;54.254;18.504;2023-02-11T11:04:55;100929.35;;;4.93;100.00
51259;BME280;37327;54.254;18.504;2023-02-11T11:08:05;100940.05;;;4.93;100.00
51259;BME280;37327;54.254;18.504;2023-02-11T11:11:20;100959.50;;;4.95;100.00
51259;BME280;37327;54.254;18.504;2023-02-11T11:14:27;100945.99;;;4.97;100.00
51259;BME280;37327;54.254;18.504;2023-02-11T11:17:35;100952.76;;;5.01;100.00
51259;BME280;37327;54.254;18.504;2023-02-11T11:24:01;100964.05;;;5.04;100.00
51259;BME280;37327;54.254;18.504;2023-02-11T11:27:17;100971.37;;;5.02;100.00
51259;BME280;37327;54.254;18.504;2023-02-11T11:30:32;100984.03;;;5.00;100.00
51259;BME280;37327;54.254;18.504;2023-02-11T11:33:41;100985.00;;;4.99;100.00
51259;BME280;37327;54.254;18.504;2023-02-11T11:36:50;100985.00;;;4.99;100.00
51259;BME280;37327;54.254;18.504;2023-02-11T11:43:18;100985.28;;;4.96;100.00
51259;BME280;37327;54.254;18.504;2023-02-11T11:46:33;100992.45;;;4.95;100.00
51259;BME280;37327;54.254;18.504;2023-02-11T11:53:06;100989.89;;;4.94;100.00
51259;BME280;37327;54.254;18.504;2023-02-11T11:56:20;100999.77;;;4.93;100.00
51259;BME280;37327;54.254;18.504;2023-02-11T11:59:27;101000.75;;;4.92;100.00
51259;BME280;37327;54.254;18.504;2023-02-11T12:02:51;101013.27;;;4.92;100.00
51259;BME280;37327;54.254;18.504;2023-02-11T12:32:48;101044.52;;;5.12;100.00
51259;BME280;37327;54.254;18.504;2023-02-11T12:56:28;101071.63;;;5.29;100.00
51259;BME280;37327;54.254;18.504;2023-02-11T13:06:12;101082.80;;;5.34;100.00
51259;BME280;37327;54.254;18.504;2023-02-11T13:09:19;101079.13;;;5.35;100.00
51259;BME280;37327;54.254;18.504;2023-02-11T13:12:31;101093.38;;;5.36;100.00
51259;BME280;37327;54.254;18.504;2023-02-11T13:22:43;101109.16;;;5.39;100.00
51259;BME280;37327;54.254;18.504;2023-02-11T13:26:01;101122.55;;;5.39;100.00
51259;BME280;37327;54.254;18.504;2023-02-11T13:39:18;101130.20;;;5.43;100.00
51259;BME280;37327;54.254;18.504;2023-02-11T13:42:26;101133.85;;;5.42;100.00
51259;BME280;37327;54.254;18.504;2023-02-11T13:45:43;101151.63;;;5.43;100.00
51259;BME280;37327;54.254;18.504;2023-02-11T13:48:52;101151.63;;;5.43;100.00
51259;BME280;37327;54.254;18.504;2023-02-11T13:52:03;101152.47;;;5.44;100.00
51259;BME280;37327;54.254;18.504;2023-02-11T13:55:19;101162.18;;;5.45;100.00
51259;BME280;37327;54.254;18.504;2023-02-11T13:58:33;101164.86;;;5.45;100.00
51259;BME280;37327;54.254;18.504;2023-02-11T14:15:26;101193.10;;;5.49;100.00
51259;BME280;37327;54.254;18.504;2023-02-11T14:21:50;101200.98;;;5.50;100.00
51259;BME280;37327;54.254;18.504;2023-02-11T14:25:03;101205.50;;;5.50;100.00
51259;BME280;37327;54.254;18.504;2023-02-11T14:28:22;101216.22;;;5.50;100.00
51259;BME280;37327;54.254;18.504;2023-02-11T14:41:29;101254.42;;;5.52;100.00
51259;BME280;37327;54.254;18.504;2023-02-11T14:44:38;101252.59;;;5.52;100.00
51259;BME280;37327;54.254;18.504;2023-02-11T14:48:38;101271.33;;;5.52;100.00
51259;BME280;37327;54.254;18.504;2023-02-11T14:51:10;101272.34;;;5.51;100.00
51259;BME280;37327;54.254;18.504;2023-02-11T14:54:22;101270.77;;;5.49;100.00
51259;BME280;37327;54.254;18.504;2023-02-11T14:57:31;101288.41;;;5.51;100.00
51259;BME280;37327;54.254;18.504;2023-02-11T15:00:48;101291.92;;;5.52;100.00
51259;BME280;37327;54.254;18.504;2023-02-11T15:03:56;101300.67;;;5.54;100.00
51259;BME280;37327;54.254;18.504;2023-02-11T15:07:07;101307.88;;;5.53;100.00
51259;BME280;37327;54.254;18.504;2023-02-11T15:13:37;101329.30;;;5.53;100.00
51259;BME280;37327;54.254;18.504;2023-02-11T15:16:52;101338.30;;;5.52;100.00
51259;BME280;37327;54.254;18.504;2023-02-11T15:20:00;101349.02;;;5.52;100.00
51259;BME280;37327;54.254;18.504;2023-02-11T15:23:16;101360.45;;;5.54;100.00
51259;BME280;37327;54.254;18.504;2023-02-11T15:26:26;101366.80;;;5.53;100.00
51259;BME280;37327;54.254;18.504;2023-02-11T15:29:38;101367.91;;;5.51;100.00
51259;BME280;37327;54.254;18.504;2023-02-11T15:32:56;101366.31;;;5.48;100.00
51259;BME280;37327;54.254;18.504;2023-02-11T15:36:08;101372.78;;;5.46;100.00
51259;BME280;37327;54.254;18.504;2023-02-11T15:39:29;101387.30;;;5.43;100.00
51259;BME280;37327;54.254;18.504;2023-02-11T15:46:02;101405.31;;;5.41;100.00
51259;BME280;37327;54.254;18.504;2023-02-11T15:49:14;101416.99;;;5.40;100.00
51259;BME280;37327;54.254;18.504;2023-02-11T15:52:27;101423.19;;;5.41;100.00
51259;BME280;37327;54.254;18.504;2023-02-11T15:55:34;101426.98;;;5.38;100.00
51259;BME280;37327;54.254;18.504;2023-02-11T15:58:44;101440.61;;;5.35;100.00
51259;BME280;37327;54.254;18.504;2023-02-11T16:01:54;101451.47;;;5.33;100.00
51259;BME280;37327;54.254;18.504;2023-02-11T16:05:06;101454.38;;;5.30;100.00
51259;BME280;37327;54.254;18.504;2023-02-11T16:08:23;101474.96;;;5.30;100.00
51259;BME280;37327;54.254;18.504;2023-02-11T16:11:58;101475.46;;;5.24;100.00
51259;BME280;37327;54.254;18.504;2023-02-11T16:14:48;101492.60;;;5.21;100.00
51259;BME280;37327;54.254;18.504;2023-02-11T16:17:55;101510.76;;;5.18;100.00
51259;BME280;37327;54.254;18.504;2023-02-11T16:21:04;101517.30;;;5.13;100.00
51259;BME280;37327;54.254;18.504;2023-02-11T16:24:23;101524.86;;;5.08;100.00
51259;BME280;37327;54.254;18.504;2023-02-11T16:27:37;101536.79;;;5.04;100.00
51259;BME280;37327;54.254;18.504;2023-02-11T16:30:45;101551.38;;;5.00;100.00
51259;BME280;37327;54.254;18.504;2023-02-11T16:33:57;101569.84;;;4.92;100.00
51259;BME280;37327;54.254;18.504;2023-02-11T16:37:04;101574.60;;;4.88;100.00
51259;BME280;37327;54.254;18.504;2023-02-11T16:40:12;101584.79;;;4.83;100.00
51259;BME280;37327;54.254;18.504;2023-02-11T16:43:19;101598.40;;;4.80;100.00
51259;BME280;37327;54.254;18.504;2023-02-11T16:46:26;101600.59;;;4.75;100.00
51259;BME280;37327;54.254;18.504;2023-02-11T16:49:41;101613.34;;;4.71;100.00
51259;BME280;37327;54.254;18.504;2023-02-11T16:52:49;101618.18;;;4.66;100.00
51259;BME280;37327;54.254;18.504;2023-02-11T16:55:57;101628.50;;;4.60;100.00
51259;BME280;37327;54.254;18.504;2023-02-11T16:59:04;101633.22;;;4.56;100.00
51259;BME280;37327;54.254;18.504;2023-02-11T17:05:30;101650.37;;;4.53;100.00
51259;BME280;37327;54.254;18.504;2023-02-11T17:08:38;101668.45;;;4.50;100.00
51259;BME280;37327;54.254;18.504;2023-02-11T17:11:47;101669.65;;;4.46;100.00
51259;BME280;37327;54.254;18.504;2023-02-11T17:14:54;101675.57;;;4.38;100.00
51259;BME280;37327;54.254;18.504;2023-02-11T17:18:02;101681.57;;;4.29;100.00
51259;BME280;37327;54.254;18.504;2023-02-11T17:21:10;101703.52;;;4.21;100.00
51259;BME280;37327;54.254;18.504;2023-02-11T17:24:18;101707.83;;;4.11;100.00
51259;BME280;37327;54.254;18.504;2023-02-11T17:27:25;101716.60;;;4.00;100.00
51259;BME280;37327;54.254;18.504;2023-02-11T17:30:33;101720.16;;;3.88;100.00
51259;BME280;37327;54.254;18.504;2023-02-11T17:33:40;101735.03;;;3.79;100.00
51259;BME280;37327;54.254;18.504;2023-02-11T17:36:48;101736.31;;;3.73;100.00
51259;BME280;37327;54.254;18.504;2023-02-11T17:39:55;101760.65;;;3.69;100.00
51259;BME280;37327;54.254;18.504;2023-02-11T17:43:03;101771.76;;;3.63;100.00
51259;BME280;37327;54.254;18.504;2023-02-11T17:46:10;101776.78;;;3.54;100.00
51259;BME280;37327;54.254;18.504;2023-02-11T17:49:19;101793.74;;;3.41;100.00
51259;BME280;37327;54.254;18.504;2023-02-11T17:52:26;101800.95;;;3.26;100.00
51259;BME280;37327;54.254;18.504;2023-02-11T17:55:34;101799.96;;;3.14;100.00
51259;BME280;37327;54.254;18.504;2023-02-11T17:58:42;101800.04;;;3.00;100.00
51259;BME280;37327;54.254;18.504;2023-02-11T18:01:50;101816.63;;;2.90;100.00
51259;BME280;37327;54.254;18.504;2023-02-11T18:04:57;101831.34;;;2.83;100.00
51259;BME280;37327;54.254;18.504;2023-02-11T18:08:06;101834.69;;;2.72;100.00
51259;BME280;37327;54.254;18.504;2023-02-11T18:11:13;101841.57;;;2.62;100.00
51259;BME280;37327;54.254;18.504;2023-02-11T18:14:23;101858.05;;;2.54;100.00
51259;BME280;37327;54.254;18.504;2023-02-11T18:17:30;101864.72;;;2.47;100.00
51259;BME280;37327;54.254;18.504;2023-02-11T18:20:36;101889.94;;;2.42;100.00
51259;BME280;37327;54.254;18.504;2023-02-11T18:23:48;101886.80;;;2.35;100.00
51259;BME280;37327;54.254;18.504;2023-02-11T18:26:55;101895.06;;;2.30;100.00
51259;BME280;37327;54.254;18.504;2023-02-11T18:30:03;101896.20;;;2.26;100.00
51259;BME280;37327;54.254;18.504;2023-02-11T18:33:10;101904.41;;;2.23;100.00
51259;BME280;37327;54.254;18.504;2023-02-11T18:36:20;101913.42;;;2.21;100.00
51259;BME280;37327;54.254;18.504;2023-02-11T18:39:28;101917.15;;;2.18;100.00
51259;BME280;37327;54.254;18.504;2023-02-11T18:42:36;101932.36;;;2.16;100.00
51259;BME280;37327;54.254;18.504;2023-02-11T18:45:45;101934.64;;;2.08;100.00
51259;BME280;37327;54.254;18.504;2023-02-11T18:48:52;101934.80;;;2.05;100.00
51259;BME280;37327;54.254;18.504;2023-02-11T18:51:59;101944.61;;;2.04;100.00
51259;BME280;37327;54.254;18.504;2023-02-11T18:55:07;101957.09;;;2.04;100.00
51259;BME280;37327;54.254;18.504;2023-02-11T18:58:14;101961.65;;;2.02;100.00
51259;BME280;37327;54.254;18.504;2023-02-11T19:01:23;101970.57;;;2.01;100.00
51259;BME280;37327;54.254;18.504;2023-02-11T19:04:34;101983.98;;;1.99;100.00
51259;BME280;37327;54.254;18.504;2023-02-11T19:07:42;101983.13;;;1.98;100.00
51259;BME280;37327;54.254;18.504;2023-02-11T19:10:49;101986.84;;;1.96;100.00
51259;BME280;37327;54.254;18.504;2023-02-11T19:13:57;101993.98;;;1.95;100.00
51259;BME280;37327;54.254;18.504;2023-02-11T19:17:06;101991.40;;;1.94;100.00
51259;BME280;37327;54.254;18.504;2023-02-11T19:20:17;101999.47;;;1.92;100.00
51259;BME280;37327;54.254;18.504;2023-02-11T19:23:24;102025.34;;;1.90;100.00
51259;BME280;37327;54.254;18.504;2023-02-11T19:26:31;102037.88;;;1.88;100.00
51259;BME280;37327;54.254;18.504;2023-02-11T19:29:39;102040.83;;;1.84;100.00
51259;BME280;37327;54.254;18.504;2023-02-11T19:32:45;102051.55;;;1.82;100.00
51259;BME280;37327;54.254;18.504;2023-02-11T19:36:03;102053.34;;;1.82;100.00
51259;BME280;37327;54.254;18.504;2023-02-11T19:39:11;102055.15;;;1.81;100.00